Time;durP1;ratioP1;P1;durP2;ratioP2;P2;SDS_P1;SDS_P2;PMS_P1;PMS_P2;Temp;Humidity;BMP_temperature;BMP_pressure;BME280_temperature;BME280_humidity;BME280_pressure;Samples;Min_cycle;Max_cycle;Signal;HPM_P1;HPM_P2
2022/05/10 00:01:49;;;;;;;14.73;11.55;;;14.50;99.90;;;;;;5101375;28;20579;-65
2022/05/10 00:04:18;;;;;;;13.30;10.63;;;14.40;99.90;;;;;;5096839;28;20044;-66
2022/05/10 00:06:48;;;;;;;13.35;10.98;;;14.50;99.90;;;;;;5109773;28;20426;-65
2022/05/10 00:09:22;;;;;;;13.80;10.48;;;14.40;99.90;;;;;;5102847;28;20032;-65
2022/05/10 00:11:50;;;;;;;12.10;10.43;;;14.40;99.90;;;;;;5088427;28;20067;-66
2022/05/10 00:14:17;;;;;;;11.68;10.35;;;14.40;99.90;;;;;;5107250;28;20379;-65
2022/05/10 00:16:45;;;;;;;12.15;10.48;;;14.30;99.90;;;;;;5099975;28;20044;-65
2022/05/10 00:19:15;;;;;;;13.80;11.13;;;14.20;99.90;;;;;;5108885;27;20494;-65
2022/05/10 00:21:43;;;;;;;13.02;11.63;;;14.20;99.90;;;;;;5101473;28;20068;-65
2022/05/10 00:24:11;;;;;;;14.05;10.38;;;14.20;99.90;;;;;;5093354;28;20096;-65
2022/05/10 00:26:39;;;;;;;12.93;10.63;;;14.10;99.90;;;;;;5097603;28;20196;-65
2022/05/10 00:29:06;;;;;;;14.57;10.90;;;14.10;99.90;;;;;;5097907;28;20060;-65
2022/05/10 00:31:34;;;;;;;12.00;10.27;;;14.10;99.90;;;;;;5101711;28;20061;-65
2022/05/10 00:34:03;;;;;;;14.50;11.13;;;14.00;99.90;;;;;;5103183;28;20449;-64
2022/05/10 00:36:30;;;;;;;13.23;10.60;;;14.00;99.90;;;;;;5108273;28;20058;-65
2022/05/10 00:38:58;;;;;;;16.27;10.60;;;14.00;99.90;;;;;;5106824;28;20054;-64
2022/05/10 00:41:41;;;;;;;12.35;10.63;;;14.00;99.90;;;;;;5108573;28;20044;-64
2022/05/10 00:44:22;;;;;;;11.63;10.38;;;14.00;99.90;;;;;;5099394;28;20445;-64
2022/05/10 00:47:01;;;;;;;14.48;10.68;;;14.00;99.90;;;;;;5099929;28;20054;-65
2022/05/10 00:49:53;;;;;;;15.38;11.00;;;14.00;99.90;;;;;;5103997;28;20147;-64
2022/05/10 00:52:29;;;;;;;14.13;11.32;;;14.00;99.90;;;;;;5104478;28;20074;-66
2022/05/10 00:55:41;;;;;;;14.32;11.68;;;14.00;99.90;;;;;;5099817;28;20040;-64
2022/05/10 00:58:08;;;;;;;14.85;11.10;;;14.00;99.90;;;;;;5094648;28;20976;-65
2022/05/10 01:00:35;;;;;;;13.23;10.93;;;14.00;99.90;;;;;;5092379;28;20036;-65
2022/05/10 01:03:28;;;;;;;13.40;11.88;;;14.00;99.90;;;;;;5096765;28;20502;-65
2022/05/10 01:06:32;;;;;;;13.75;12.13;;;13.90;99.90;;;;;;5103356;28;20031;-65
2022/05/10 01:09:06;;;;;;;14.65;12.20;;;13.90;99.90;;;;;;5065021;28;20036;-65
2022/05/10 01:11:47;;;;;;;15.20;12.77;;;13.80;99.90;;;;;;5099495;28;20130;-65
2022/05/10 01:14:38;;;;;;;14.82;12.30;;;13.80;99.90;;;;;;5108003;28;20035;-66
2022/05/10 01:17:06;;;;;;;12.98;11.55;;;13.70;99.90;;;;;;5106985;28;20064;-65
2022/05/10 01:19:33;;;;;;;16.13;12.50;;;13.60;99.90;;;;;;5104066;28;20096;-66
2022/05/10 01:22:16;;;;;;;15.52;11.68;;;13.70;99.90;;;;;;5109158;28;20040;-65
2022/05/10 01:25:11;;;;;;;14.90;11.80;;;13.60;99.90;;;;;;5112074;28;20450;-64
2022/05/10 01:27:41;;;;;;;15.18;12.10;;;13.60;99.90;;;;;;5112608;28;20281;-64
2022/05/10 01:30:15;;;;;;;13.75;11.93;;;13.60;99.90;;;;;;5108324;28;20517;-64
2022/05/10 01:33:34;;;;;;;15.55;11.90;;;13.60;99.90;;;;;;5106899;28;20051;-64
2022/05/10 01:36:03;;;;;;;14.95;12.15;;;13.50;99.90;;;;;;5106214;28;20079;-64
2022/05/10 01:38:43;;;;;;;13.98;11.32;;;13.40;99.90;;;;;;5112205;28;20032;-64
2022/05/10 01:41:36;;;;;;;15.18;10.95;;;13.40;99.90;;;;;;5101639;27;20040;-64
2022/05/10 01:44:23;;;;;;;14.23;11.35;;;13.30;99.90;;;;;;5103063;28;20364;-64
2022/05/10 01:46:57;;;;;;;15.00;11.75;;;13.30;99.90;;;;;;5112205;28;20153;-64
2022/05/10 01:49:31;;;;;;;16.35;12.48;;;13.20;99.90;;;;;;5104549;28;20077;-65
2022/05/10 01:52:14;;;;;;;12.50;11.13;;;13.20;99.90;;;;;;5111711;28;20102;-64
2022/05/10 01:54:41;;;;;;;16.67;12.93;;;13.20;99.90;;;;;;5095748;28;20134;-64
2022/05/10 01:57:12;;;;;;;15.13;11.98;;;13.20;99.90;;;;;;5109462;28;20047;-65
2022/05/10 01:59:48;;;;;;;14.05;11.40;;;13.20;99.90;;;;;;5106253;28;20060;-66
2022/05/10 02:02:18;;;;;;;15.38;12.13;;;13.20;99.90;;;;;;5102853;27;20114;-65
2022/05/10 02:04:48;;;;;;;16.95;13.00;;;13.20;99.90;;;;;;5105764;28;20142;-64
2022/05/10 02:07:20;;;;;;;17.60;11.82;;;13.20;99.90;;;;;;5099668;28;20032;-65
2022/05/10 02:10:11;;;;;;;15.73;12.63;;;13.20;99.90;;;;;;5119920;27;20048;-64
2022/05/10 02:12:44;;;;;;;15.60;13.03;;;13.20;99.90;;;;;;5109719;28;20040;-64
2022/05/10 02:15:38;;;;;;;16.42;12.40;;;13.20;99.90;;;;;;5110022;28;20076;-64
2022/05/10 02:18:23;;;;;;;15.77;12.38;;;13.10;99.90;;;;;;5107543;28;20131;-64
2022/05/10 02:21:18;;;;;;;16.27;12.38;;;13.10;99.90;;;;;;5111196;27;20044;-64
2022/05/10 02:24:05;;;;;;;18.27;13.23;;;13.00;99.90;;;;;;5097150;28;20485;-66
2022/05/10 02:26:42;;;;;;;15.85;13.02;;;13.00;99.90;;;;;;5100522;28;20073;-65
2022/05/10 02:29:15;;;;;;;16.23;13.32;;;13.00;99.90;;;;;;5104653;28;20413;-64
2022/05/10 02:34:43;;;;;;;16.73;12.82;;;13.00;99.90;;;;;;5106287;28;20067;-64
2022/05/10 02:37:12;;;;;;;18.50;13.23;;;12.90;99.90;;;;;;5103822;28;20040;-64
2022/05/10 02:39:41;;;;;;;17.20;13.30;;;12.90;99.90;;;;;;5105708;28;20128;-65
2022/05/10 02:42:11;;;;;;;15.63;12.82;;;12.90;99.90;;;;;;5109743;28;20043;-64
2022/05/10 02:44:39;;;;;;;19.27;13.40;;;12.90;99.90;;;;;;5108636;28;20622;-66
2022/05/10 02:47:08;;;;;;;18.95;14.25;;;12.90;99.90;;;;;;5108447;28;20036;-65
2022/05/10 02:49:37;;;;;;;17.50;12.82;;;12.90;99.90;;;;;;5107869;28;20047;-65
2022/05/10 02:52:05;;;;;;;19.42;14.45;;;12.80;99.90;;;;;;5108886;28;20138;-65
2022/05/10 02:54:32;;;;;;;19.50;14.15;;;12.80;99.90;;;;;;5111236;28;20063;-65
2022/05/10 02:57:02;;;;;;;18.55;13.68;;;12.80;99.90;;;;;;5111206;28;20122;-65
2022/05/10 02:59:36;;;;;;;18.75;13.48;;;12.80;99.90;;;;;;5105291;28;20047;-65
2022/05/10 03:02:03;;;;;;;21.67;13.82;;;12.80;99.90;;;;;;5092365;28;20044;-65
2022/05/10 03:04:36;;;;;;;18.85;13.40;;;12.90;99.90;;;;;;5093645;28;20035;-65
2022/05/10 03:07:05;;;;;;;20.98;14.05;;;12.80;99.90;;;;;;5095635;28;20032;-65
2022/05/10 03:09:33;;;;;;;18.55;12.95;;;12.90;99.90;;;;;;5108196;28;20043;-65
2022/05/10 03:12:04;;;;;;;16.83;12.63;;;12.80;99.90;;;;;;5109064;28;20454;-65
2022/05/10 03:14:32;;;;;;;17.33;13.40;;;12.80;99.90;;;;;;5107988;28;20046;-65
2022/05/10 03:16:59;;;;;;;21.27;14.25;;;12.80;99.90;;;;;;5108857;28;20457;-65
2022/05/10 03:19:27;;;;;;;18.45;12.88;;;12.80;99.90;;;;;;5106847;27;20052;-65
2022/05/10 03:21:54;;;;;;;17.45;13.13;;;12.70;99.90;;;;;;5107211;28;20079;-65
2022/05/10 03:24:21;;;;;;;20.00;14.27;;;12.70;99.90;;;;;;5109641;28;20577;-65
2022/05/10 03:26:51;;;;;;;17.60;12.88;;;12.70;99.90;;;;;;5110667;28;20060;-65
2022/05/10 03:29:19;;;;;;;17.15;13.43;;;12.60;99.90;;;;;;5100498;28;20112;-65
2022/05/10 03:31:49;;;;;;;16.60;13.43;;;12.60;99.90;;;;;;5109814;28;20495;-65
2022/05/10 03:37:04;;;;;;;17.00;12.27;;;12.60;99.90;;;;;;5110460;28;20138;-65
2022/05/10 03:39:32;;;;;;;15.02;12.70;;;12.60;99.90;;;;;;5096456;28;20089;-65
2022/05/10 03:41:59;;;;;;;14.23;11.73;;;12.60;99.90;;;;;;5101714;28;20046;-64
2022/05/10 03:44:30;;;;;;;19.85;14.40;;;12.50;99.90;;;;;;5104814;28;20071;-64
2022/05/10 03:46:58;;;;;;;17.27;13.80;;;12.50;99.90;;;;;;5107753;28;20226;-64
2022/05/10 03:49:25;;;;;;;15.38;12.85;;;12.50;99.90;;;;;;5109244;28;20501;-65
2022/05/10 03:51:55;;;;;;;17.27;14.23;;;12.50;99.90;;;;;;5108486;28;20047;-65
2022/05/10 03:54:23;;;;;;;16.02;13.43;;;12.50;99.90;;;;;;5110151;28;20569;-64
2022/05/10 03:56:51;;;;;;;18.88;14.63;;;12.50;99.90;;;;;;5098260;28;20048;-65
2022/05/10 03:59:19;;;;;;;19.42;14.50;;;12.60;99.90;;;;;;5108529;28;20076;-65
2022/05/10 04:01:47;;;;;;;18.65;15.18;;;12.60;99.90;;;;;;5096094;28;20127;-66
2022/05/10 04:04:18;;;;;;;16.75;13.80;;;12.60;99.90;;;;;;5104624;28;20135;-65
2022/05/10 04:06:45;;;;;;;18.90;14.80;;;12.60;99.90;;;;;;5096930;28;20050;-65
2022/05/10 04:09:15;;;;;;;18.35;14.40;;;12.60;99.90;;;;;;5100775;28;20397;-65
2022/05/10 04:11:44;;;;;;;18.15;14.00;;;12.60;99.90;;;;;;5107960;28;20131;-65
2022/05/10 04:14:11;;;;;;;19.45;15.05;;;12.60;99.90;;;;;;5109156;28;20043;-65
2022/05/10 04:16:39;;;;;;;19.83;15.55;;;12.60;99.90;;;;;;5104004;28;20052;-65
2022/05/10 04:19:06;;;;;;;20.50;15.60;;;12.60;99.90;;;;;;5098593;27;20057;-65
2022/05/10 04:21:34;;;;;;;20.60;15.55;;;12.70;99.90;;;;;;5108005;28;20114;-65
2022/05/10 04:24:03;;;;;;;17.88;14.20;;;12.70;99.90;;;;;;5108120;28;20119;-65
2022/05/10 04:26:30;;;;;;;16.70;13.35;;;12.70;99.90;;;;;;5106745;28;20035;-66
2022/05/10 04:28:58;;;;;;;14.55;12.38;;;12.80;99.90;;;;;;5104114;28;20075;-65
2022/05/10 04:31:26;;;;;;;18.38;14.25;;;12.80;99.90;;;;;;5091595;28;20048;-64
2022/05/10 04:33:54;;;;;;;16.20;12.10;;;12.90;99.90;;;;;;5102647;28;20057;-64
2022/05/10 04:36:23;;;;;;;16.27;13.40;;;12.90;99.90;;;;;;5108287;28;20134;-64
2022/05/10 04:38:50;;;;;;;17.23;13.95;;;13.10;99.90;;;;;;5105113;28;20043;-65
2022/05/10 04:41:38;;;;;;;16.98;13.05;;;13.10;99.90;;;;;;5104722;28;20126;-64
2022/05/10 04:44:08;;;;;;;21.33;13.30;;;13.20;99.90;;;;;;5099785;28;20770;-64
2022/05/10 04:46:37;;;;;;;17.15;13.48;;;13.30;99.90;;;;;;5106925;28;20051;-64
2022/05/10 04:49:07;;;;;;;14.77;11.18;;;13.40;99.90;;;;;;5095691;28;20386;-65
2022/05/10 04:51:35;;;;;;;16.98;13.27;;;13.40;99.90;;;;;;5106078;28;20047;-66
2022/05/10 04:54:03;;;;;;;20.20;14.95;;;13.50;99.90;;;;;;5094282;28;20097;-65
2022/05/10 04:56:30;;;;;;;19.90;14.88;;;13.60;99.90;;;;;;5108646;28;20093;-65
2022/05/10 04:58:57;;;;;;;19.40;13.90;;;13.60;99.90;;;;;;5097991;28;20048;-65
2022/05/10 05:01:28;;;;;;;18.75;14.77;;;13.60;99.90;;;;;;5097226;28;20051;-65
2022/05/10 05:03:56;;;;;;;21.58;16.85;;;13.70;99.90;;;;;;5090890;28;20071;-64
2022/05/10 05:06:24;;;;;;;17.30;13.95;;;13.70;99.90;;;;;;5098135;28;20428;-65
2022/05/10 05:08:52;;;;;;;21.98;15.43;;;13.90;99.90;;;;;;5093180;28;20461;-64
2022/05/10 05:11:20;;;;;;;17.05;13.43;;;13.90;99.90;;;;;;5098134;28;20047;-66
2022/05/10 05:13:47;;;;;;;20.58;13.60;;;14.00;99.90;;;;;;5101779;28;20552;-65
2022/05/10 05:16:14;;;;;;;15.82;12.48;;;14.10;99.90;;;;;;5090772;28;20054;-65
2022/05/10 05:18:42;;;;;;;14.70;12.40;;;14.10;99.90;;;;;;5106529;28;20047;-66
2022/05/10 05:21:10;;;;;;;20.77;16.27;;;14.20;99.90;;;;;;5101261;28;20122;-65
2022/05/10 05:23:37;;;;;;;16.38;13.52;;;14.30;99.90;;;;;;5095176;28;20044;-65
2022/05/10 05:26:05;;;;;;;16.00;12.63;;;14.40;99.90;;;;;;5096378;28;20040;-65
2022/05/10 05:28:32;;;;;;;16.55;12.60;;;14.40;99.90;;;;;;5094692;28;20085;-65
2022/05/10 05:31:01;;;;;;;18.90;12.88;;;14.50;99.90;;;;;;5105954;28;20069;-66
2022/05/10 05:33:29;;;;;;;19.15;11.93;;;14.60;99.90;;;;;;5108523;28;20138;-65
2022/05/10 05:35:56;;;;;;;12.68;10.93;;;14.60;99.90;;;;;;5082814;28;20043;-66
2022/05/10 05:38:26;;;;;;;14.85;10.95;;;14.70;99.90;;;;;;5089368;28;20040;-64
2022/05/10 05:40:53;;;;;;;17.20;13.23;;;14.80;99.90;;;;;;5089991;28;20036;-66
2022/05/10 05:43:22;;;;;;;15.57;12.57;;;14.90;99.90;;;;;;5088187;28;20099;-66
2022/05/10 05:45:51;;;;;;;13.23;11.40;;;15.00;99.90;;;;;;5091936;28;20406;-66
2022/05/10 05:48:19;;;;;;;19.23;12.18;;;15.10;99.90;;;;;;5092007;28;20040;-66
2022/05/10 05:50:47;;;;;;;16.63;12.40;;;15.20;99.90;;;;;;5090097;28;20040;-66
2022/05/10 05:53:18;;;;;;;15.82;13.18;;;15.30;99.90;;;;;;5095293;28;20039;-65
2022/05/10 05:55:48;;;;;;;16.33;12.10;;;15.40;99.90;;;;;;5098456;28;20044;-66
2022/05/10 05:58:16;;;;;;;14.30;12.38;;;15.50;99.90;;;;;;5099953;28;20401;-66
2022/05/10 06:00:44;;;;;;;15.85;12.35;;;15.60;99.90;;;;;;5098038;28;20036;-65
2022/05/10 06:03:11;;;;;;;13.77;11.85;;;15.70;99.90;;;;;;5107859;28;20485;-66
2022/05/10 06:05:39;;;;;;;16.23;11.52;;;15.80;99.90;;;;;;5104614;28;20046;-65
2022/05/10 06:08:08;;;;;;;17.67;12.07;;;15.90;99.90;;;;;;5098717;28;20217;-65
2022/05/10 06:10:37;;;;;;;16.38;11.65;;;16.10;99.90;;;;;;5111269;28;20039;-66
2022/05/10 06:13:05;;;;;;;14.52;11.13;;;16.10;99.90;;;;;;5106270;28;20052;-65
2022/05/10 06:15:33;;;;;;;15.93;11.63;;;16.20;99.90;;;;;;5098952;28;20115;-65
2022/05/10 06:18:03;;;;;;;14.88;11.98;;;16.40;99.90;;;;;;5102520;28;20577;-67
2022/05/10 06:20:31;;;;;;;18.57;11.50;;;16.50;99.90;;;;;;5102092;27;20036;-66
2022/05/10 06:22:58;;;;;;;14.57;11.35;;;16.50;99.90;;;;;;5096950;28;20409;-66
2022/05/10 06:25:27;;;;;;;14.18;11.30;;;16.70;99.90;;;;;;5101696;28;20147;-65
2022/05/10 06:27:56;;;;;;;14.73;12.82;;;16.80;99.90;;;;;;5095253;28;20135;-65
2022/05/10 06:30:24;;;;;;;15.98;13.02;;;16.90;99.90;;;;;;5093104;28;20055;-65
2022/05/10 06:32:59;;;;;;;16.10;11.00;;;17.00;99.90;;;;;;5109402;28;20112;-65
2022/05/10 06:35:28;;;;;;;16.40;11.93;;;17.00;99.90;;;;;;5103179;28;20401;-66
2022/05/10 06:40:44;;;;;;;14.23;11.18;;;17.30;99.90;;;;;;5095421;28;20139;-65
2022/05/10 06:43:11;;;;;;;15.23;11.02;;;17.40;99.90;;;;;;5099104;28;20046;-65
2022/05/10 06:45:43;;;;;;;16.80;11.95;;;17.50;99.90;;;;;;5093497;28;20060;-65
2022/05/10 06:48:11;;;;;;;12.40;8.80;;;17.60;99.90;;;;;;5099324;28;20423;-66
2022/05/10 06:50:40;;;;;;;13.25;11.15;;;17.70;99.90;;;;;;5095020;28;20040;-66
2022/05/10 06:53:07;;;;;;;16.85;11.48;;;17.80;99.90;;;;;;5098171;28;20031;-65
2022/05/10 06:55:36;;;;;;;18.90;12.50;;;17.90;99.90;;;;;;5105335;28;20050;-65
2022/05/10 06:58:04;;;;;;;16.05;10.88;;;17.90;99.90;;;;;;5096273;28;20126;-65
2022/05/10 07:00:36;;;;;;;12.65;10.55;;;18.00;99.90;;;;;;5109401;28;20058;-65
2022/05/10 07:03:07;;;;;;;14.20;11.25;;;18.10;99.90;;;;;;5108817;28;20522;-65
2022/05/10 07:05:35;;;;;;;16.27;10.82;;;18.20;99.90;;;;;;5110642;28;20075;-65
2022/05/10 07:08:03;;;;;;;17.25;11.05;;;18.30;99.90;;;;;;5103676;27;20058;-66
2022/05/10 07:10:31;;;;;;;12.43;10.50;;;18.50;99.90;;;;;;5103029;28;20059;-66
2022/05/10 07:12:59;;;;;;;14.88;10.57;;;18.60;99.90;;;;;;5099940;28;20510;-65
2022/05/10 07:15:27;;;;;;;16.58;11.80;;;18.60;99.90;;;;;;5105274;28;20518;-65
2022/05/10 07:17:54;;;;;;;20.63;12.63;;;18.70;99.90;;;;;;5110501;28;20143;-66
2022/05/10 07:20:22;;;;;;;14.13;10.48;;;18.90;99.90;;;;;;5110553;27;20043;-64
2022/05/10 07:22:49;;;;;;;15.48;11.23;;;18.90;99.90;;;;;;5110547;28;20044;-65
2022/05/10 07:25:19;;;;;;;14.43;10.70;;;19.10;99.90;;;;;;5107568;28;20036;-66
2022/05/10 07:27:47;;;;;;;16.75;10.43;;;19.10;99.90;;;;;;5110269;28;20477;-66
2022/05/10 07:30:15;;;;;;;13.55;10.13;;;19.20;99.90;;;;;;5109603;28;20036;-66
2022/05/10 07:32:42;;;;;;;11.18;8.95;;;19.30;99.90;;;;;;5098588;28;20059;-65
2022/05/10 07:35:10;;;;;;;12.77;9.20;;;19.40;99.90;;;;;;5109634;28;20044;-65
2022/05/10 07:37:39;;;;;;;11.27;9.07;;;19.60;99.90;;;;;;5103589;28;20761;-66
2022/05/10 07:40:09;;;;;;;14.20;9.30;;;19.70;99.90;;;;;;5104626;28;20040;-65
2022/05/10 07:42:39;;;;;;;15.07;9.00;;;19.70;99.90;;;;;;5102851;28;20465;-65
2022/05/10 07:45:08;;;;;;;10.98;8.80;;;19.60;99.90;;;;;;5108390;28;20806;-65
2022/05/10 07:47:36;;;;;;;11.90;8.98;;;19.70;99.90;;;;;;5109437;28;20043;-65
2022/05/10 07:50:04;;;;;;;12.88;8.80;;;19.80;99.90;;;;;;5106969;28;20039;-65
2022/05/10 07:52:31;;;;;;;12.52;8.40;;;19.90;99.90;;;;;;5110233;28;20044;-65
2022/05/10 07:55:00;;;;;;;10.07;8.38;;;20.00;99.90;;;;;;5104394;28;20362;-65
2022/05/10 07:57:28;;;;;;;12.38;9.55;;;20.10;99.90;;;;;;5107177;28;20572;-65
2022/05/10 07:59:55;;;;;;;10.70;9.02;;;20.30;99.90;;;;;;5105628;28;20819;-65
2022/05/10 08:02:22;;;;;;;10.65;8.07;;;20.40;99.90;;;;;;5100103;28;20126;-65
2022/05/10 08:04:50;;;;;;;9.10;7.78;;;20.50;99.90;;;;;;5106448;28;20116;-64
2022/05/10 08:07:17;;;;;;;12.98;8.30;;;20.60;99.90;;;;;;5108109;28;20046;-65
2022/05/10 08:09:44;;;;;;;12.82;8.48;;;20.70;99.90;;;;;;5109024;28;20058;-65
2022/05/10 08:12:12;;;;;;;11.48;8.60;;;20.70;99.90;;;;;;5097089;28;20036;-65
2022/05/10 08:14:39;;;;;;;10.95;7.97;;;20.70;99.90;;;;;;5107573;28;20043;-65
2022/05/10 08:17:06;;;;;;;9.95;8.38;;;20.90;99.90;;;;;;5097954;28;20469;-65
2022/05/10 08:19:33;;;;;;;12.80;8.40;;;21.00;99.90;;;;;;5107510;27;20044;-65
2022/05/10 08:22:01;;;;;;;10.63;8.00;;;21.00;99.90;;;;;;5108048;28;20112;-65
2022/05/10 08:24:28;;;;;;;13.05;8.43;;;21.10;99.90;;;;;;5101212;28;20126;-66
2022/05/10 08:26:57;;;;;;;11.25;8.00;;;21.10;99.90;;;;;;5098882;28;20466;-65
2022/05/10 08:29:25;;;;;;;14.18;8.80;;;21.30;99.90;;;;;;5106404;28;20077;-66
2022/05/10 08:31:52;;;;;;;9.60;8.18;;;21.30;99.90;;;;;;5102579;28;20467;-65
2022/05/10 08:34:20;;;;;;;12.52;8.07;;;21.30;99.90;;;;;;5101890;28;20055;-65
2022/05/10 08:36:52;;;;;;;14.30;8.88;;;21.40;99.90;;;;;;5108304;28;20047;-65
2022/05/10 08:39:19;;;;;;;11.40;8.43;;;21.30;99.90;;;;;;5107178;28;20111;-64
2022/05/10 08:41:59;;;;;;;10.55;7.72;;;21.50;99.90;;;;;;5109394;28;20040;-65
2022/05/10 08:44:31;;;;;;;12.53;8.77;;;21.70;99.90;;;;;;5100764;28;20095;-65
2022/05/10 08:47:03;;;;;;;12.70;8.57;;;21.80;99.90;;;;;;5109100;28;20127;-65
2022/05/10 08:49:45;;;;;;;16.00;8.98;;;21.90;99.90;;;;;;5106428;28;20047;-65
2022/05/10 08:52:14;;;;;;;;;;;21.90;99.90;;;;;;5109139;28;20054;-65
2022/05/10 08:54:43;;;;;;;8.90;7.43;;;22.00;99.90;;;;;;5105224;28;19930;-65
2022/05/10 08:57:38;;;;;;;9.05;7.15;;;22.20;99.90;;;;;;5108099;28;20054;-65
2022/05/10 09:00:06;;;;;;;10.75;7.20;;;22.30;99.90;;;;;;5107204;28;20040;-65
2022/05/10 09:02:54;;;;;;;9.23;7.40;;;22.50;99.90;;;;;;5091489;28;20036;-66
2022/05/10 09:05:38;;;;;;;9.73;7.25;;;22.60;99.90;;;;;;5103445;28;20123;-65
2022/05/10 09:08:42;;;;;;;10.60;6.65;;;22.70;99.90;;;;;;5097636;28;20042;-65
2022/05/10 09:11:13;;;;;;;10.13;6.88;;;22.80;99.90;;;;;;5065132;28;20048;-66
2022/05/10 09:13:42;;;;;;;9.95;6.90;;;22.90;99.90;;;;;;5101589;28;20363;-67
2022/05/10 09:16:12;;;;;;;8.52;5.93;;;22.70;99.90;;;;;;5102692;28;20063;-65
2022/05/10 09:18:42;;;;;;;7.70;6.70;;;22.70;99.90;;;;;;5102573;28;20669;-65
2022/05/10 09:21:26;;;;;;;8.23;6.30;;;22.70;99.90;;;;;;5105526;28;20040;-65
2022/05/10 09:24:18;;;;;;;9.13;6.70;;;23.00;99.90;;;;;;5104747;28;20161;-65
2022/05/10 09:26:52;;;;;;;11.30;6.90;;;23.20;99.90;;;;;;5099465;28;20071;-65
2022/05/10 09:29:31;;;;;;;9.13;5.97;;;23.50;99.90;;;;;;5107109;28;20036;-64
2022/05/10 09:35:09;;;;;;;9.80;6.75;;;23.60;99.90;;;;;;5108758;28;20123;-65
2022/05/10 09:37:58;;;;;;;10.95;7.03;;;23.60;99.90;;;;;;5105175;28;20035;-65
2022/05/10 09:40:34;;;;;;;10.30;6.30;;;23.50;99.90;;;;;;5099018;28;20047;-65
2022/05/10 09:43:21;;;;;;;8.45;6.55;;;23.50;99.90;;;;;;5107354;28;21226;-64
2022/05/10 09:46:05;;;;;;;9.38;7.32;;;23.80;99.90;;;;;;5112192;28;20442;-65
2022/05/10 09:48:34;;;;;;;7.95;6.50;;;24.00;99.90;;;;;;5112011;28;20096;-65
2022/05/10 09:51:28;;;;;;;12.45;6.22;;;24.20;99.90;;;;;;5109728;28;20422;-65
2022/05/10 09:53:56;;;;;;;8.68;6.45;;;24.50;99.90;;;;;;5100480;28;20051;-64
2022/05/10 09:56:23;;;;;;;8.85;6.10;;;24.40;99.90;;;;;;5112814;28;20047;-65
2022/05/10 09:59:04;;;;;;;9.43;6.10;;;24.10;99.90;;;;;;5110486;28;20051;-65
2022/05/10 10:01:42;;;;;;;8.88;6.10;;;24.00;99.90;;;;;;5107107;28;20044;-64
2022/05/10 10:04:34;;;;;;;9.25;5.88;;;24.30;99.90;;;;;;5100866;28;20096;-66
2022/05/10 10:07:17;;;;;;;7.65;6.13;;;24.50;99.90;;;;;;5109065;28;20444;-65
2022/05/10 10:09:47;;;;;;;7.82;6.10;;;24.40;99.90;;;;;;5105320;28;20146;-65
2022/05/10 10:12:34;;;;;;;7.80;5.95;;;24.60;99.90;;;;;;5108630;28;20753;-65
2022/05/10 10:15:15;;;;;;;9.40;5.93;;;24.60;99.90;;;;;;5106331;28;20052;-65
2022/05/10 10:18:04;;;;;;;11.65;6.32;;;24.70;99.90;;;;;;5093653;28;20565;-65
2022/05/10 10:20:50;;;;;;;7.55;6.57;;;24.90;99.90;;;;;;5111752;27;20067;-66
2022/05/10 10:23:44;;;;;;;10.68;6.25;;;24.80;99.90;;;;;;5103636;28;20040;-65
2022/05/10 10:26:21;;;;;;;9.85;5.70;;;24.60;99.90;;;;;;5107559;28;20491;-64
2022/05/10 10:28:56;;;;;;;7.38;5.53;;;24.70;99.90;;;;;;5096837;28;20471;-65
2022/05/10 10:31:35;;;;;;;7.97;5.60;;;24.80;99.90;;;;;;5094389;28;20097;-64
2022/05/10 10:34:08;;;;;;;9.07;6.20;;;25.00;99.90;;;;;;5105317;28;20043;-65
2022/05/10 10:36:48;;;;;;;8.65;5.95;;;25.10;99.90;;;;;;5103783;28;20071;-64
2022/05/10 10:39:32;;;;;;;7.43;5.60;;;25.10;99.90;;;;;;5108743;28;20052;-65
2022/05/10 10:42:24;;;;;;;7.75;5.45;;;25.20;99.90;;;;;;5107609;28;20097;-65
2022/05/10 10:45:00;;;;;;;10.07;6.10;;;25.40;99.90;;;;;;5109538;28;20580;-65
2022/05/10 10:47:44;;;;;;;6.38;5.03;;;25.50;99.90;;;;;;5109595;28;20047;-65
2022/05/10 10:50:25;;;;;;;6.63;4.93;;;25.40;99.90;;;;;;5110868;28;20070;-64
2022/05/10 10:52:55;;;;;;;6.40;4.90;;;25.60;99.90;;;;;;5111530;28;20043;-64
2022/05/10 10:55:49;;;;;;;8.07;4.88;;;25.90;99.90;;;;;;5102261;28;20040;-64
2022/05/10 10:58:42;;;;;;;7.20;5.05;;;25.90;99.90;;;;;;5107201;28;20387;-64
2022/05/10 11:01:34;;;;;;;5.97;4.88;;;26.20;99.90;;;;;;5078784;28;20139;-64
2022/05/10 11:04:36;;;;;;;6.53;5.28;;;26.60;99.90;;;;;;5094411;28;20062;-65
2022/05/10 11:07:18;;;;;;;8.50;5.05;;;26.40;99.90;;;;;;5095349;28;20052;-64
2022/05/10 11:10:00;;;;;;;9.15;4.95;;;26.60;99.90;;;;;;5102959;27;20118;-64
2022/05/10 11:12:52;;;;;;;5.90;5.03;;;26.90;99.90;;;;;;5102128;28;20047;-65
2022/05/10 11:15:35;;;;;;;7.60;4.80;;;26.90;98.50;;;;;;5105110;28;20038;-66
2022/05/10 11:18:32;;;;;;;6.68;4.55;;;26.80;98.40;;;;;;5109395;28;20057;-65
2022/05/10 11:21:32;;;;;;;7.55;4.97;;;27.00;97.50;;;;;;5106050;28;20036;-65
2022/05/10 11:24:18;;;;;;;6.70;4.90;;;27.70;97.70;;;;;;5105537;28;20166;-65
2022/05/10 11:26:51;;;;;;;8.73;5.15;;;28.10;96.60;;;;;;5097916;28;20048;-65
2022/05/10 11:29:25;;;;;;;5.75;4.60;;;28.20;96.00;;;;;;5101006;28;20698;-66
2022/05/10 11:32:20;;;;;;;7.30;4.82;;;27.60;95.40;;;;;;5108485;28;20047;-65
2022/05/10 11:34:59;;;;;;;6.13;4.43;;;27.90;94.60;;;;;;5092933;28;20047;-65
2022/05/10 11:37:45;;;;;;;5.93;4.07;;;28.40;94.10;;;;;;5097517;28;20250;-65
2022/05/10 11:40:55;;;;;;;6.45;4.40;;;28.90;92.30;;;;;;5105552;28;20050;-64
2022/05/10 11:43:43;;;;;;;7.30;4.72;;;29.70;91.10;;;;;;5109702;28;20112;-64
2022/05/10 11:46:33;;;;;;;5.70;3.67;;;30.40;88.20;;;;;;5109498;28;20486;-65
2022/05/10 11:49:33;;;;;;;7.18;3.45;;;30.10;85.50;;;;;;5105372;28;20036;-65
2022/05/10 11:52:38;;;;;;;7.72;4.03;;;29.80;87.10;;;;;;5104583;28;20459;-65
2022/05/10 11:55:31;;;;;;;7.32;3.83;;;28.60;87.10;;;;;;5109301;28;20457;-64
2022/05/10 11:58:03;;;;;;;7.88;4.57;;;28.20;88.80;;;;;;5101437;28;20131;-65
2022/05/10 12:00:33;;;;;;;7.70;4.45;;;27.90;90.20;;;;;;5104627;28;20471;-64
2022/05/10 12:03:12;;;;;;;7.95;4.22;;;28.60;90.40;;;;;;5095450;28;20036;-65
2022/05/10 12:05:41;;;;;;;6.97;3.80;;;29.20;86.50;;;;;;5094320;28;20486;-65
2022/05/10 12:08:19;;;;;;;6.68;3.60;;;29.80;84.10;;;;;;5096467;28;20109;-65
2022/05/10 12:10:48;;;;;;;5.50;3.40;;;30.20;82.10;;;;;;5103188;28;20047;-65
2022/05/10 12:22:14;;;;;;;6.18;3.78;;;30.70;78.80;;;;;;5091067;28;20066;-65
2022/05/10 12:24:46;;;;;;;6.53;3.50;;;30.80;77.20;;;;;;5094808;28;20048;-65
2022/05/10 12:27:15;;;;;;;7.07;3.60;;;30.60;78.50;;;;;;5099178;28;20336;-65
2022/05/10 12:29:42;;;;;;;7.05;3.97;;;30.30;76.40;;;;;;5108430;28;20039;-64
2022/05/10 12:32:21;;;;;;;7.25;3.55;;;30.30;78.60;;;;;;5096621;28;20048;-64
2022/05/10 12:34:56;;;;;;;5.82;3.78;;;30.20;77.70;;;;;;5087865;28;20491;-65
2022/05/10 12:37:27;;;;;;;5.57;4.05;;;29.90;77.10;;;;;;5084934;28;20047;-64
2022/05/10 12:40:03;;;;;;;6.38;3.95;;;30.30;78.50;;;;;;5088075;28;20129;-65
2022/05/10 12:42:59;;;;;;;8.68;3.63;;;30.80;76.40;;;;;;5086056;28;20046;-65
2022/05/10 12:45:33;;;;;;;4.95;3.60;;;31.40;75.40;;;;;;5087340;28;20051;-65
2022/05/10 12:48:30;;;;;;;5.03;3.67;;;32.40;73.80;;;;;;5087336;28;20043;-65
2022/05/10 12:51:15;;;;;;;7.00;3.40;;;30.30;74.90;;;;;;5086603;28;20072;-66
2022/05/10 12:54:00;;;;;;;5.90;3.67;;;30.40;75.00;;;;;;5086669;28;20040;-65
2022/05/10 12:56:31;;;;;;;6.28;3.50;;;30.90;73.40;;;;;;5102669;28;20048;-65
2022/05/10 12:59:46;;;;;;;6.00;3.30;;;31.30;73.80;;;;;;5093590;28;20413;-66
2022/05/10 13:02:14;;;;;;;6.60;3.40;;;31.20;73.50;;;;;;5081716;28;20306;-65
2022/05/10 13:04:48;;;;;;;5.57;3.33;;;31.20;71.00;;;;;;5088304;28;20499;-66
2022/05/10 13:07:54;;;;;;;5.50;3.33;;;30.80;71.10;;;;;;5100672;28;20640;-66
2022/05/10 13:10:22;;;;;;;7.30;3.60;;;31.20;71.30;;;;;;5087430;28;20079;-65
2022/05/10 13:12:55;;;;;;;5.22;3.47;;;31.70;71.50;;;;;;5091042;28;20048;-66
2022/05/10 13:15:23;;;;;;;5.82;3.85;;;32.90;70.30;;;;;;5092870;28;20044;-66
2022/05/10 13:17:54;;;;;;;6.07;3.75;;;33.70;69.10;;;;;;5086216;28;20043;-66
2022/05/10 13:20:27;;;;;;;8.05;3.67;;;33.70;67.10;;;;;;5112780;27;20430;-66
2022/05/10 13:23:02;;;;;;;4.93;3.33;;;33.90;66.90;;;;;;5110599;28;20066;-66
2022/05/10 13:25:36;;;;;;;5.15;3.17;;;33.70;66.70;;;;;;5107063;28;20417;-65
2022/05/10 13:28:22;;;;;;;5.72;3.63;;;34.10;67.00;;;;;;5103838;28;20035;-67
2022/05/10 13:30:51;;;;;;;4.82;3.35;;;33.90;66.30;;;;;;5101461;28;20040;-66
2022/05/10 13:33:26;;;;;;;4.53;3.30;;;34.60;66.60;;;;;;5107226;28;20051;-67